Time;durP1;ratioP1;P1;durP2;ratioP2;P2;SDS_P1;SDS_P2;PMS_P1;PMS_P2;Temp;Humidity;BMP_temperature;BMP_pressure;BME280_temperature;BME280_humidity;BME280_pressure;Samples;Min_cycle;Max_cycle;Signal;HPM_P1;HPM_P2
2022/08/23 00:00:48;;;;;;;4.67;2.73;;;;;;;;;;5091580;28;20288;-69
2022/08/23 00:03:18;;;;;;;4.33;2.67;;;;;;;;;;5086915;28;20201;-69
2022/08/23 00:05:48;;;;;;;4.57;2.87;;;;;;;;;;5075842;28;20213;-69
2022/08/23 00:08:20;;;;;;;4.10;2.77;;;;;;;;;;5072950;28;20265;-69
2022/08/23 00:10:50;;;;;;;5.30;2.90;;;;;;;;;;5082957;28;20538;-69
2022/08/23 00:13:21;;;;;;;5.13;2.80;;;;;;;;;;5082453;28;20240;-69
2022/08/23 00:16:12;;;;;;;5.17;2.60;;;;;;;;;;5078649;28;20193;-69
2022/08/23 00:18:45;;;;;;;5.73;2.50;;;;;;;;;;5080440;28;20205;-69
2022/08/23 00:21:18;;;;;;;4.60;3.13;;;;;;;;;;5078643;28;20208;-68
2022/08/23 00:23:49;;;;;;;3.40;2.57;;;;;;;;;;5083567;28;20541;-69
2022/08/23 00:26:20;;;;;;;4.13;2.70;;;;;;;;;;5084781;28;20610;-68
2022/08/23 00:28:53;;;;;;;4.83;2.70;;;;;;;;;;5077447;28;20288;-69
2022/08/23 00:31:24;;;;;;;7.17;2.80;;;;;;;;;;5079270;28;20259;-69
2022/08/23 00:34:02;;;;;;;4.73;2.87;;;;;;;;;;5085391;28;20190;-69
2022/08/23 00:36:32;;;;;;;3.90;2.50;;;;;;;;;;5078464;28;20197;-69
2022/08/23 00:39:02;;;;;;;5.93;3.17;;;;;;;;;;5073040;28;20205;-69
2022/08/23 00:41:31;;;;;;;5.57;2.80;;;;;;;;;;5078233;28;20510;-69
2022/08/23 00:49:42;;;;;;;4.97;2.90;;;;;;;;;;5059802;28;20198;-68
2022/08/23 00:52:41;;;;;;;4.23;3.00;;;;;;;;;;5072902;28;20294;-69
2022/08/23 00:55:11;;;;;;;5.97;2.90;;;;;;;;;;5014626;28;20331;-68
2022/08/23 00:57:43;;;;;;;4.67;3.30;;;;;;;;;;5079562;28;20561;-69
2022/08/23 01:00:15;;;;;;;3.90;3.03;;;;;;;;;;5085216;28;20545;-69
2022/08/23 01:02:46;;;;;;;5.67;2.93;;;;;;;;;;5094870;28;20216;-68
2022/08/23 01:05:18;;;;;;;6.57;3.73;;;;;;;;;;5077844;28;20244;-69
2022/08/23 01:07:53;;;;;;;6.77;3.03;;;;;;;;;;5071954;28;20591;-68
2022/08/23 01:10:38;;;;;;;4.33;2.87;;;;;;;;;;5081821;28;20618;-68
2022/08/23 01:13:32;;;;;;;5.67;3.03;;;;;;;;;;5068963;28;20223;-69
2022/08/23 01:16:09;;;;;;;5.10;3.17;;;;;;;;;;5089191;28;20204;-68
2022/08/23 01:18:42;;;;;;;4.80;2.73;;;;;;;;;;5068161;28;20192;-68
2022/08/23 01:21:14;;;;;;;4.07;2.90;;;;;;;;;;5075989;28;20254;-68
2022/08/23 01:23:51;;;;;;;7.77;3.17;;;;;;;;;;5076155;28;20200;-68
2022/08/23 01:26:21;;;;;;;4.87;2.70;;;;;;;;;;5083986;28;20247;-68
2022/08/23 01:28:52;;;;;;;3.70;2.80;;;;;;;;;;5078785;28;20228;-68
2022/08/23 01:31:23;;;;;;;6.63;3.03;;;;;;;;;;5086875;28;20197;-68
2022/08/23 01:33:57;;;;;;;4.23;3.00;;;;;;;;;;5087306;28;20629;-68
2022/08/23 01:36:32;;;;;;;5.00;3.00;;;;;;;;;;5068284;28;20204;-68
2022/08/23 01:39:02;;;;;;;4.33;2.57;;;;;;;;;;5055013;28;20497;-68
2022/08/23 01:41:30;;;;;;;6.10;2.80;;;;;;;;;;5090356;28;20217;-68
2022/08/23 01:44:04;;;;;;;3.77;2.60;;;;;;;;;;5077876;28;20239;-68
2022/08/23 01:46:32;;;;;;;9.80;3.27;;;;;;;;;;5079651;28;20197;-68
2022/08/23 01:49:03;;;;;;;3.33;2.50;;;;;;;;;;5069175;28;20657;-68
2022/08/23 01:51:34;;;;;;;4.60;3.07;;;;;;;;;;5067546;28;20662;-68
2022/08/23 01:54:05;;;;;;;5.93;3.20;;;;;;;;;;5064063;28;20699;-68
2022/08/23 01:56:35;;;;;;;3.60;2.83;;;;;;;;;;5086670;28;20227;-68
2022/08/23 01:59:08;;;;;;;4.27;2.70;;;;;;;;;;5079494;28;20815;-68
2022/08/23 02:01:39;;;;;;;5.47;2.83;;;;;;;;;;5066303;28;20312;-68
2022/08/23 02:04:07;;;;;;;4.63;2.90;;;;;;;;;;5061936;28;20194;-69
2022/08/23 02:06:36;;;;;;;3.80;2.73;;;;;;;;;;5064525;28;20201;-69
2022/08/23 02:09:07;;;;;;;4.70;2.70;;;;;;;;;;5055313;28;20236;-68
2022/08/23 02:11:46;;;;;;;4.03;2.93;;;;;;;;;;5051696;28;20197;-69
2022/08/23 02:14:19;;;;;;;4.20;2.80;;;;;;;;;;5041571;28;20670;-68
2022/08/23 02:16:53;;;;;;;4.17;2.70;;;;;;;;;;5059392;28;20209;-68
2022/08/23 02:19:34;;;;;;;9.53;3.10;;;;;;;;;;5054035;28;20213;-68
2022/08/23 02:22:06;;;;;;;4.00;3.20;;;;;;;;;;5047759;28;20492;-68
2022/08/23 02:24:48;;;;;;;5.30;2.90;;;;;;;;;;5065230;28;20213;-68
2022/08/23 02:27:32;;;;;;;4.30;2.80;;;;;;;;;;5056301;28;20282;-68
2022/08/23 02:30:15;;;;;;;4.70;2.50;;;;;;;;;;5041596;28;20264;-68
2022/08/23 02:32:46;;;;;;;5.97;3.20;;;;;;;;;;5060478;28;20198;-68
2022/08/23 02:35:16;;;;;;;2.87;2.50;;;;;;;;;;5064684;28;20206;-68
2022/08/23 02:37:48;;;;;;;5.50;3.07;;;;;;;;;;5059865;28;20206;-68
2022/08/23 02:40:40;;;;;;;3.40;3.10;;;;;;;;;;5052564;28;20194;-68
2022/08/23 02:43:11;;;;;;;3.33;2.73;;;;;;;;;;5060277;28;20216;-68
2022/08/23 02:45:40;;;;;;;4.53;3.00;;;;;;;;;;5047929;28;20220;-68
2022/08/23 02:48:10;;;;;;;4.57;2.73;;;;;;;;;;5044234;28;20190;-68
2022/08/23 02:50:42;;;;;;;6.50;3.27;;;;;;;;;;5041116;28;20905;-68
2022/08/23 02:53:13;;;;;;;4.53;3.00;;;;;;;;;;5056001;28;20233;-68
2022/08/23 02:55:46;;;;;;;7.37;3.10;;;;;;;;;;5056970;28;20683;-68
2022/08/23 02:58:14;;;;;;;4.80;3.00;;;;;;;;;;5058981;28;20236;-68
2022/08/23 03:00:49;;;;;;;5.67;3.10;;;;;;;;;;5044973;28;20186;-68
2022/08/23 03:03:20;;;;;;;3.20;2.90;;;;;;;;;;5054280;28;20494;-68
2022/08/23 03:05:51;;;;;;;3.83;2.80;;;;;;;;;;5035379;28;20863;-68
2022/08/23 03:08:22;;;;;;;4.90;3.10;;;;;;;;;;5056848;28;20623;-68
2022/08/23 03:10:55;;;;;;;4.97;3.30;;;;;;;;;;5035375;28;20667;-69
2022/08/23 03:13:27;;;;;;;4.10;3.00;;;;;;;;;;5052246;28;20240;-68
2022/08/23 03:16:01;;;;;;;6.07;3.93;;;;;;;;;;5058153;28;20623;-68
2022/08/23 03:18:33;;;;;;;4.90;3.00;;;;;;;;;;5057219;28;20744;-68
2022/08/23 03:21:09;;;;;;;3.83;3.00;;;;;;;;;;5066536;28;20693;-68
2022/08/23 03:23:39;;;;;;;9.47;3.43;;;;;;;;;;5047503;28;20578;-68
2022/08/23 03:26:11;;;;;;;6.50;3.03;;;;;;;;;;5046566;28;20563;-68
2022/08/23 03:28:41;;;;;;;3.50;2.63;;;;;;;;;;5041953;28;20276;-68
2022/08/23 03:31:12;;;;;;;4.50;3.00;;;;;;;;;;5059664;28;20194;-68
2022/08/23 03:33:53;;;;;;;5.73;3.00;;;;;;;;;;5036165;28;20230;-68
2022/08/23 03:36:24;;;;;;;5.33;2.80;;;;;;;;;;5048439;28;20228;-68
2022/08/23 03:38:56;;;;;;;5.73;3.17;;;;;;;;;;5056376;28;20255;-68
2022/08/23 03:41:27;;;;;;;4.50;3.20;;;;;;;;;;5058788;28;20589;-68
2022/08/23 03:43:59;;;;;;;6.40;3.10;;;;;;;;;;5051825;28;20201;-68
2022/08/23 03:46:32;;;;;;;5.70;3.30;;;;;;;;;;5048865;28;20224;-68
2022/08/23 03:49:03;;;;;;;5.90;2.97;;;;;;;;;;5053326;28;20202;-68
2022/08/23 03:51:34;;;;;;;3.80;2.97;;;;;;;;;;5048898;28;20311;-68
2022/08/23 03:54:05;;;;;;;5.33;3.27;;;;;;;;;;5045503;28;20244;-68
2022/08/23 03:56:39;;;;;;;3.90;3.03;;;;;;;;;;5038208;28;20281;-68
2022/08/23 03:59:20;;;;;;;4.77;3.13;;;;;;;;;;5045775;28;20198;-68
2022/08/23 04:01:49;;;;;;;5.82;2.95;;;;;;;;;;4941319;28;3674097;-68
2022/08/23 04:04:19;;;;;;;4.13;2.97;;;;;;;;;;5053878;28;20194;-68
2022/08/23 04:06:48;;;;;;;5.50;3.30;;;;;;;;;;5033702;28;20299;-68
2022/08/23 04:09:18;;;;;;;3.53;2.77;;;;;;;;;;5047590;28;20245;-68
2022/08/23 04:11:51;;;;;;;5.00;3.10;;;;;;;;;;5052895;28;20198;-68
2022/08/23 04:14:19;;;;;;;4.27;2.80;;;;;;;;;;5051761;28;20186;-68
2022/08/23 04:16:56;;;;;;;4.00;3.20;;;;;;;;;;5056253;28;20198;-68
2022/08/23 04:19:27;;;;;;;5.90;3.30;;;;;;;;;;5049762;28;20202;-68
2022/08/23 04:21:56;;;;;;;4.33;3.03;;;;;;;;;;5059843;28;20665;-68
2022/08/23 04:24:28;;;;;;;4.87;3.20;;;;;;;;;;5055512;28;20201;-69
2022/08/23 04:26:59;;;;;;;5.40;3.03;;;;;;;;;;5048922;28;20198;-69
2022/08/23 04:29:30;;;;;;;5.50;3.20;;;;;;;;;;5048331;28;20210;-69
2022/08/23 04:32:01;;;;;;;3.93;3.00;;;;;;;;;;5059417;28;20677;-69
2022/08/23 04:34:38;;;;;;;3.70;2.93;;;;;;;;;;5034780;28;20182;-69
2022/08/23 04:37:11;;;;;;;4.93;3.23;;;;;;;;;;5059271;28;20206;-69
2022/08/23 04:42:29;;;;;;;6.57;3.40;;;;;;;;;;5056133;28;20225;-69
2022/08/23 04:45:00;;;;;;;3.90;3.27;;;;;;;;;;5061618;28;20214;-70
2022/08/23 04:47:39;;;;;;;3.30;3.00;;;;;;;;;;5051801;28;20205;-69
2022/08/23 04:50:22;;;;;;;6.03;3.13;;;;;;;;;;5060670;28;20254;-69
2022/08/23 04:52:55;;;;;;;4.53;2.53;;;;;;;;;;5049926;28;20260;-69
2022/08/23 04:55:32;;;;;;;3.63;2.77;;;;;;;;;;5053674;28;20251;-68
2022/08/23 04:58:06;;;;;;;4.70;3.23;;;;;;;;;;5054743;28;20214;-68
2022/08/23 05:00:34;;;;;;;6.93;3.53;;;;;;;;;;5045355;28;20190;-68
2022/08/23 05:03:03;;;;;;;6.03;3.23;;;;;;;;;;5065936;28;20185;-68
2022/08/23 05:05:35;;;;;;;4.57;3.00;;;;;;;;;;5053631;28;20230;-68
2022/08/23 05:08:05;;;;;;;3.20;2.90;;;;;;;;;;5051899;28;20191;-68
2022/08/23 05:10:37;;;;;;;8.97;4.00;;;;;;;;;;5063611;28;20202;-69
2022/08/23 05:13:08;;;;;;;6.57;3.33;;;;;;;;;;5059597;28;20662;-69
2022/08/23 05:15:45;;;;;;;8.50;3.37;;;;;;;;;;5054704;28;20213;-68
2022/08/23 05:18:14;;;;;;;5.37;3.53;;;;;;;;;;5065665;28;20316;-68
2022/08/23 05:20:47;;;;;;;4.47;3.17;;;;;;;;;;5061620;28;20193;-68
2022/08/23 05:23:21;;;;;;;4.63;3.10;;;;;;;;;;5067465;28;20228;-69
2022/08/23 05:26:01;;;;;;;4.27;3.17;;;;;;;;;;5048515;28;20233;-68
2022/08/23 05:28:34;;;;;;;4.13;3.37;;;;;;;;;;5026969;28;20213;-70
2022/08/23 05:31:10;;;;;;;10.87;3.70;;;;;;;;;;5040819;28;20215;-67
2022/08/23 05:33:41;;;;;;;4.57;3.23;;;;;;;;;;5062688;28;20224;-67
2022/08/23 05:36:13;;;;;;;4.33;3.33;;;;;;;;;;5043445;28;20193;-67
2022/08/23 05:38:43;;;;;;;4.93;2.83;;;;;;;;;;5042335;28;20195;-67
2022/08/23 05:41:15;;;;;;;4.27;3.30;;;;;;;;;;5028310;28;20704;-66
2022/08/23 05:43:43;;;;;;;4.20;3.50;;;;;;;;;;5064755;28;20225;-67
2022/08/23 05:46:21;;;;;;;6.50;3.60;;;;;;;;;;5047307;28;20220;-69
2022/08/23 05:48:55;;;;;;;4.10;3.30;;;;;;;;;;5039669;28;20185;-69
2022/08/23 05:51:38;;;;;;;5.43;3.87;;;;;;;;;;5059211;28;20217;-69
2022/08/23 05:54:09;;;;;;;6.93;4.03;;;;;;;;;;5047328;28;20230;-69
2022/08/23 05:56:43;;;;;;;6.43;4.07;;;;;;;;;;5057597;28;20674;-68
2022/08/23 05:59:19;;;;;;;7.53;4.43;;;;;;;;;;5051215;28;20220;-69
2022/08/23 06:01:49;;;;;;;10.73;4.97;;;;;;;;;;5058467;28;20257;-69
2022/08/23 06:04:21;;;;;;;11.43;4.80;;;;;;;;;;5045181;28;20206;-69
2022/08/23 06:06:52;;;;;;;8.07;5.10;;;;;;;;;;5051204;28;20244;-69
2022/08/23 06:09:25;;;;;;;7.70;6.87;;;;;;;;;;5061071;28;20189;-69
2022/08/23 06:11:58;;;;;;;10.07;6.80;;;;;;;;;;5051438;28;20218;-69
2022/08/23 06:14:32;;;;;;;10.60;7.43;;;;;;;;;;5046864;28;20194;-69
2022/08/23 06:17:04;;;;;;;8.93;7.33;;;;;;;;;;5060368;28;20206;-69
2022/08/23 06:19:34;;;;;;;17.02;8.00;;;;;;;;;;5057766;28;20433;-68
2022/08/23 06:22:04;;;;;;;12.80;8.20;;;;;;;;;;5066781;28;20185;-71
2022/08/23 06:24:34;;;;;;;16.37;7.47;;;;;;;;;;5043354;28;20202;-74
2022/08/23 06:27:06;;;;;;;9.33;6.90;;;;;;;;;;5061514;28;20261;-73
2022/08/23 06:29:34;;;;;;;9.67;7.07;;;;;;;;;;5056779;28;20673;-74
2022/08/23 06:32:03;;;;;;;9.63;7.60;;;;;;;;;;5059193;28;20217;-68
2022/08/23 06:34:35;;;;;;;11.50;7.40;;;;;;;;;;5065118;28;20189;-68
2022/08/23 06:37:13;;;;;;;8.53;7.00;;;;;;;;;;5049845;28;20190;-69
2022/08/23 06:39:43;;;;;;;11.67;7.47;;;;;;;;;;5045406;28;20198;-68
2022/08/23 06:42:13;;;;;;;9.23;7.43;;;;;;;;;;5044263;28;20738;-72
2022/08/23 06:45:05;;;;;;;9.50;7.10;;;;;;;;;;5046666;28;20631;-71
2022/08/23 06:47:40;;;;;;;11.20;7.53;;;;;;;;;;5055032;28;20224;-68
2022/08/23 06:50:10;;;;;;;10.20;8.37;;;;;;;;;;5064736;28;20193;-72
2022/08/23 06:52:40;;;;;;;15.93;9.20;;;;;;;;;;5050630;28;20222;-70
2022/08/23 06:55:09;;;;;;;20.13;10.33;;;;;;;;;;5053971;28;20291;-71
2022/08/23 06:57:41;;;;;;;14.10;9.40;;;;;;;;;;5052074;28;20936;-73
2022/08/23 07:00:11;;;;;;;12.80;9.50;;;;;;;;;;5053021;28;20204;-71
2022/08/23 07:02:48;;;;;;;13.67;9.13;;;;;;;;;;5053103;28;20234;-68
2022/08/23 07:05:18;;;;;;;12.00;8.17;;;;;;;;;;5052420;28;20217;-69
2022/08/23 07:07:48;;;;;;;10.97;7.43;;;;;;;;;;5043158;28;20201;-69
2022/08/23 07:10:20;;;;;;;12.30;7.50;;;;;;;;;;5059353;28;20198;-70
2022/08/23 07:12:52;;;;;;;14.30;8.20;;;;;;;;;;5057384;28;20190;-68
2022/08/23 07:15:22;;;;;;;9.83;7.37;;;;;;;;;;5047913;28;20842;-70
2022/08/23 07:17:51;;;;;;;9.27;7.10;;;;;;;;;;5049236;28;20231;-72
2022/08/23 07:20:21;;;;;;;9.80;8.07;;;;;;;;;;5063628;28;20592;-72
2022/08/23 07:22:51;;;;;;;8.67;7.17;;;;;;;;;;5065901;28;20190;-75
2022/08/23 07:25:21;;;;;;;11.40;8.03;;;;;;;;;;5060935;28;20194;-71
2022/08/23 07:27:53;;;;;;;10.57;7.60;;;;;;;;;;5058124;28;20228;-73
2022/08/23 07:30:27;;;;;;;10.83;8.33;;;;;;;;;;5062885;28;20286;-70
2022/08/23 07:32:59;;;;;;;10.07;8.17;;;;;;;;;;5043155;28;20190;-70
2022/08/23 07:35:29;;;;;;;11.10;8.60;;;;;;;;;;5064060;28;20554;-74
2022/08/23 07:38:08;;;;;;;12.73;8.70;;;;;;;;;;5064669;28;20726;-72
2022/08/23 07:40:38;;;;;;;15.03;8.20;;;;;;;;;;5065964;28;20709;-73
2022/08/23 07:43:20;;;;;;;13.40;8.20;;;;;;;;;;5065293;28;20189;-71
2022/08/23 07:45:50;;;;;;;11.73;7.73;;;;;;;;;;5045734;28;20750;-70
2022/08/23 07:48:20;;;;;;;14.47;8.03;;;;;;;;;;5061437;28;20190;-71
2022/08/23 07:51:15;;;;;;;14.23;8.17;;;;;;;;;;5061225;28;20212;-73
2022/08/23 07:53:44;;;;;;;12.03;9.07;;;;;;;;;;5060331;28;20741;-74
2022/08/23 07:56:18;;;;;;;13.70;8.50;;;;;;;;;;5064320;28;20209;-73
2022/08/23 07:59:00;;;;;;;14.73;8.70;;;;;;;;;;5043593;28;20606;-75
2022/08/23 08:01:31;;;;;;;9.53;8.20;;;;;;;;;;5045269;28;20251;-71
2022/08/23 08:04:07;;;;;;;12.17;8.90;;;;;;;;;;5045338;28;20209;-74
2022/08/23 08:06:35;;;;;;;14.57;9.57;;;;;;;;;;5059860;28;20311;-72
2022/08/23 08:09:06;;;;;;;15.07;9.10;;;;;;;;;;5062430;28;20535;-72
2022/08/23 08:11:36;;;;;;;12.10;9.30;;;;;;;;;;5048522;28;20186;-69
2022/08/23 08:14:08;;;;;;;13.00;9.10;;;;;;;;;;5048896;28;20206;-71
2022/08/23 08:16:43;;;;;;;15.03;8.63;;;;;;;;;;5060931;28;20210;-72
2022/08/23 08:19:19;;;;;;;15.10;8.37;;;;;;;;;;5066718;28;20202;-72
2022/08/23 08:21:48;;;;;;;11.63;8.57;;;;;;;;;;5067289;28;20804;-73
2022/08/23 08:24:23;;;;;;;11.17;7.83;;;;;;;;;;5066715;28;20190;-70
2022/08/23 08:27:02;;;;;;;10.73;7.30;;;;;;;;;;5065584;28;20205;-70
2022/08/23 08:29:33;;;;;;;9.67;7.10;;;;;;;;;;5063503;28;20202;-71
2022/08/23 08:32:08;;;;;;;13.27;7.27;;;;;;;;;;5063408;28;20193;-74
2022/08/23 08:34:43;;;;;;;11.50;6.87;;;;;;;;;;5069455;28;20648;-73
2022/08/23 08:37:16;;;;;;;8.57;6.90;;;;;;;;;;5044061;28;20182;-70
2022/08/23 08:39:46;;;;;;;7.67;5.53;;;;;;;;;;5067949;28;20216;-69
2022/08/23 08:42:23;;;;;;;8.40;6.30;;;;;;;;;;5063558;28;20217;-71
2022/08/23 08:44:58;;;;;;;7.80;5.73;;;;;;;;;;5066725;28;20219;-69
2022/08/23 08:48:03;;;;;;;10.03;5.73;;;;;;;;;;5053438;28;20761;-69
2022/08/23 08:50:36;;;;;;;9.30;5.30;;;;;;;;;;5048985;28;20194;-71
2022/08/23 08:53:30;;;;;;;8.17;4.83;;;;;;;;;;5063625;28;20209;-72
2022/08/23 08:56:01;;;;;;;9.63;5.27;;;;;;;;;;5066623;28;20202;-71
2022/08/23 08:58:36;;;;;;;7.30;4.80;;;;;;;;;;5061355;28;20750;-71
2022/08/23 09:01:07;;;;;;;9.13;4.70;;;;;;;;;;5065266;28;20781;-71
2022/08/23 09:03:39;;;;;;;7.80;4.80;;;;;;;;;;5065502;28;20197;-71
2022/08/23 09:06:16;;;;;;;7.53;4.90;;;;;;;;;;5045606;28;20298;-72
2022/08/23 09:09:08;;;;;;;7.13;4.87;;;;;;;;;;5067349;28;20224;-72
2022/08/23 09:11:45;;;;;;;5.57;4.30;;;;;;;;;;5064627;28;20778;-72
2022/08/23 09:14:19;;;;;;;5.00;4.10;;;;;;;;;;5063001;28;20187;-73
2022/08/23 09:16:53;;;;;;;8.13;4.70;;;;;;;;;;5062907;28;20217;-72
2022/08/23 09:19:39;;;;;;;8.10;5.20;;;;;;;;;;5066552;28;20229;-72
2022/08/23 09:22:12;;;;;;;9.20;5.03;;;;;;;;;;5048507;28;20197;-72
2022/08/23 09:24:42;;;;;;;7.50;5.10;;;;;;;;;;5063324;28;20678;-71
2022/08/23 09:27:12;;;;;;;8.00;5.20;;;;;;;;;;5067652;28;20235;-71
2022/08/23 09:29:53;;;;;;;6.97;5.10;;;;;;;;;;5045438;28;20210;-71
2022/08/23 09:32:34;;;;;;;5.80;4.87;;;;;;;;;;5063169;28;20558;-72
2022/08/23 09:35:23;;;;;;;7.50;4.67;;;;;;;;;;5065617;28;20255;-71
2022/08/23 09:38:02;;;;;;;9.93;5.30;;;;;;;;;;5045594;28;20232;-72
2022/08/23 09:40:40;;;;;;;6.82;4.97;;;;;;;;;;5061330;28;20438;-70
2022/08/23 09:43:26;;;;;;;6.27;4.73;;;;;;;;;;5064800;28;21059;-70
2022/08/23 09:46:09;;;;;;;9.50;5.40;;;;;;;;;;5074255;28;20197;-69
2022/08/23 09:48:45;;;;;;;10.63;5.20;;;;;;;;;;5049621;28;20198;-70
2022/08/23 09:51:32;;;;;;;7.73;5.07;;;;;;;;;;5042101;28;20198;-69
2022/08/23 09:54:18;;;;;;;6.90;4.17;;;;;;;;;;5054914;28;20510;-69
2022/08/23 09:56:56;;;;;;;5.07;3.87;;;;;;;;;;5065475;28;20202;-70
2022/08/23 09:59:50;;;;;;;5.93;3.90;;;;;;;;;;5073472;28;20289;-69
2022/08/23 10:02:31;;;;;;;5.67;3.43;;;;;;;;;;5045355;28;20233;-74
2022/08/23 10:05:28;;;;;;;7.00;3.47;;;;;;;;;;5055126;28;20557;-75
2022/08/23 10:08:01;;;;;;;5.90;3.80;;;;;;;;;;5043929;28;20496;-74
2022/08/23 10:10:42;;;;;;;5.53;3.40;;;;;;;;;;5033789;28;20193;-74
2022/08/23 10:13:20;;;;;;;6.30;3.33;;;;;;;;;;5044099;28;20189;-75
2022/08/23 10:16:19;;;;;;;4.57;3.20;;;;;;;;;;5046043;28;20270;-73
2022/08/23 10:19:33;;;;;;;8.53;3.13;;;;;;;;;;5066401;28;20659;-73
2022/08/23 10:22:12;;;;;;;4.50;2.93;;;;;;;;;;4968808;28;20627;-74
2022/08/23 10:24:47;;;;;;;6.70;3.50;;;;;;;;;;4945558;28;20213;-73
2022/08/23 10:30:32;;;;;;;4.10;2.83;;;;;;;;;;4965857;28;20221;-74
2022/08/23 10:33:10;;;;;;;5.00;2.93;;;;;;;;;;4966112;28;20237;-75
2022/08/23 10:36:07;;;;;;;6.40;2.93;;;;;;;;;;4967383;28;20537;-73
2022/08/23 10:38:56;;;;;;;6.33;3.00;;;;;;;;;;4986087;28;20212;-74
2022/08/23 10:41:40;;;;;;;4.37;2.67;;;;;;;;;;5063137;28;20275;-74
2022/08/23 10:44:32;;;;;;;4.60;2.97;;;;;;;;;;5062191;28;20205;-74
2022/08/23 10:47:22;;;;;;;5.43;2.93;;;;;;;;;;5063582;28;20210;-75
2022/08/23 10:49:55;;;;;;;6.53;3.00;;;;;;;;;;5063802;28;20198;-75
2022/08/23 10:52:39;;;;;;;5.33;2.83;;;;;;;;;;5053650;28;20544;-75
2022/08/23 10:55:34;;;;;;;6.70;3.27;;;;;;;;;;5050384;28;20233;-74
2022/08/23 10:58:06;;;;;;;5.07;3.00;;;;;;;;;;5060965;28;20204;-74
2022/08/23 11:00:37;;;;;;;11.33;3.17;;;;;;;;;;5060479;28;20641;-75
2022/08/23 11:03:24;;;;;;;5.30;2.83;;;;;;;;;;5058245;28;20342;-74
2022/08/23 11:06:15;;;;;;;6.77;2.97;;;;;;;;;;5056640;28;20632;-75
2022/08/23 11:08:47;;;;;;;5.00;2.77;;;;;;;;;;5045447;28;20190;-78
2022/08/23 11:11:38;;;;;;;5.00;2.57;;;;;;;;;;5052352;28;20255;-72
2022/08/23 11:14:25;;;;;;;6.63;2.80;;;;;;;;;;5060373;28;20244;-74
2022/08/23 11:16:59;;;;;;;4.90;2.57;;;;;;;;;;5059731;28;20208;-72
2022/08/23 11:19:46;;;;;;;2.80;2.13;;;;;;;;;;5045066;28;20218;-72
2022/08/23 11:22:20;;;;;;;6.20;2.20;;;;;;;;;;5063349;28;20194;-72
2022/08/23 11:25:13;;;;;;;4.73;2.50;;;;;;;;;;5049918;28;20193;-75
2022/08/23 11:27:42;;;;;;;4.63;2.93;;;;;;;;;;5048124;28;20213;-73
2022/08/23 11:30:34;;;;;;;4.43;2.40;;;;;;;;;;5060690;28;20206;-72
2022/08/23 11:33:18;;;;;;;4.93;2.67;;;;;;;;;;5063533;28;20214;-74
2022/08/23 11:36:15;;;;;;;5.33;2.93;;;;;;;;;;5061273;28;20189;-73
2022/08/23 11:38:50;;;;;;;2.80;2.13;;;;;;;;;;5054024;28;20635;-74
2022/08/23 11:41:35;;;;;;;2.50;2.03;;;;;;;;;;5057722;28;20206;-72
2022/08/23 11:44:12;;;;;;;3.70;2.37;;;;;;;;;;5057517;28;20208;-70
2022/08/23 11:47:02;;;;;;;3.97;2.03;;;;;;;;;;5060725;28;20225;-73
2022/08/23 11:49:51;;;;;;;3.57;2.20;;;;;;;;;;5051555;28;20193;-69
2022/08/23 11:52:53;;;;;;;2.90;1.90;;;;;;;;;;5045983;28;20666;-70
2022/08/23 11:55:31;;;;;;;3.97;1.90;;;;;;;;;;5061287;28;20216;-71
2022/08/23 11:58:12;;;;;;;2.80;1.83;;;;;;;;;;5068017;28;20205;-71
2022/08/23 12:01:00;;;;;;;3.20;1.93;;;;;;;;;;5070562;28;20258;-70
2022/08/23 12:03:35;;;;;;;3.37;2.20;;;;;;;;;;5033238;28;20206;-72
2022/08/23 12:06:12;;;;;;;3.57;1.97;;;;;;;;;;5029757;28;20283;-72
2022/08/23 12:08:50;;;;;;;4.60;2.20;;;;;;;;;;5051062;28;20221;-72
2022/08/23 12:11:24;;;;;;;4.20;2.13;;;;;;;;;;5038951;28;20226;-75
2022/08/23 12:14:00;;;;;;;3.33;2.10;;;;;;;;;;5033111;28;20187;-73
2022/08/23 12:16:33;;;;;;;3.27;1.93;;;;;;;;;;5038075;28;20694;-74
2022/08/23 12:19:09;;;;;;;4.80;2.23;;;;;;;;;;5051259;28;20204;-73
2022/08/23 12:21:54;;;;;;;4.00;2.23;;;;;;;;;;5045800;28;20292;-72
2022/08/23 12:24:42;;;;;;;4.13;2.20;;;;;;;;;;5026972;28;20270;-74
2022/08/23 12:27:27;;;;;;;3.90;2.10;;;;;;;;;;5033958;28;20237;-73
2022/08/23 12:30:15;;;;;;;3.33;1.80;;;;;;;;;;5047447;28;20207;-73
2022/08/23 12:32:45;;;;;;;3.67;2.17;;;;;;;;;;5039968;28;20205;-72
2022/08/23 12:35:35;;;;;;;3.83;2.57;;;;;;;;;;5044738;28;20202;-71
2022/08/23 12:38:12;;;;;;;3.63;2.30;;;;;;;;;;5048752;28;20197;-70
2022/08/23 12:40:42;;;;;;;4.83;2.27;;;;;;;;;;5045920;28;20222;-71
2022/08/23 12:43:17;;;;;;;3.47;2.50;;;;;;;;;;5041483;28;20195;-71
2022/08/23 12:45:52;;;;;;;4.57;2.13;;;;;;;;;;5047485;28;20226;-75
2022/08/23 12:48:44;;;;;;;4.27;2.40;;;;;;;;;;5023539;28;20257;-75
2022/08/23 12:51:14;;;;;;;5.47;2.10;;;;;;;;;;5045817;28;20197;-70
2022/08/23 12:53:46;;;;;;;5.37;2.20;;;;;;;;;;5041157;28;20257;-75
2022/08/23 12:56:31;;;;;;;2.10;1.90;;;;;;;;;;5046433;28;20201;-74
2022/08/23 12:59:03;;;;;;;3.40;1.90;;;;;;;;;;5027849;28;20206;-73
2022/08/23 13:01:37;;;;;;;3.67;1.90;;;;;;;;;;5055855;28;20228;-72
2022/08/23 13:04:12;;;;;;;4.60;2.00;;;;;;;;;;5047963;28;20225;-72
2022/08/23 13:06:47;;;;;;;3.97;2.00;;;;;;;;;;5064224;28;20190;-72
2022/08/23 13:09:25;;;;;;;2.33;1.70;;;;;;;;;;5061662;28;20899;-72
2022/08/23 13:12:01;;;;;;;2.30;1.80;;;;;;;;;;5076570;28;20203;-73
2022/08/23 13:14:42;;;;;;;4.43;2.13;;;;;;;;;;5066164;28;20235;-73
2022/08/23 13:17:27;;;;;;;2.50;1.83;;;;;;;;;;5062721;28;20205;-69
2022/08/23 13:20:06;;;;;;;2.70;1.90;;;;;;;;;;5065109;28;20245;-66
2022/08/23 13:22:36;;;;;;;4.63;1.70;;;;;;;;;;5060490;28;20197;-66
2022/08/23 13:25:12;;;;;;;4.03;1.80;;;;;;;;;;5064505;28;20548;-64
2022/08/23 13:28:06;;;;;;;2.93;1.70;;;;;;;;;;5061457;28;20222;-68
2022/08/23 13:30:56;;;;;;;3.03;1.43;;;;;;;;;;5067894;28;20193;-67
2022/08/23 13:33:36;;;;;;;1.77;1.53;;;;;;;;;;5061747;28;20205;-68
2022/08/23 13:36:21;;;;;;;8.97;1.70;;;;;;;;;;5058852;28;20568;-68
2022/08/23 13:38:50;;;;;;;4.00;1.60;;;;;;;;;;5064783;28;20251;-68
2022/08/23 13:41:31;;;;;;;1.83;1.40;;;;;;;;;;5045839;28;20605;-69
2022/08/23 13:44:08;;;;;;;3.10;1.30;;;;;;;;;;5053932;28;20202;-69
2022/08/23 13:46:44;;;;;;;1.97;1.33;;;;;;;;;;5071880;28;20228;-68
2022/08/23 13:49:27;;;;;;;2.17;1.37;;;;;;;;;;5068212;28;20634;-67
2022/08/23 13:52:09;;;;;;;2.17;1.40;;;;;;;;;;5051815;28;20717;-66
2022/08/23 13:55:00;;;;;;;3.00;1.70;;;;;;;;;;5066185;28;20198;-68
2022/08/23 13:57:36;;;;;;;1.33;1.13;;;;;;;;;;5067141;28;20247;-67
2022/08/23 14:00:09;;;;;;;2.17;1.30;;;;;;;;;;5075365;28;20201;-66
2022/08/23 14:02:48;;;;;;;2.10;1.30;;;;;;;;;;5057029;28;20234;-66
2022/08/23 14:05:20;;;;;;;2.17;1.43;;;;;;;;;;5030089;28;20214;-66
2022/08/23 14:07:52;;;;;;;1.77;1.07;;;;;;;;;;5051863;28;20221;-66
2022/08/23 14:10:25;;;;;;;1.80;1.23;;;;;;;;;;5051621;28;20243;-65
2022/08/23 14:12:53;;;;;;;2.03;1.37;;;;;;;;;;5049423;28;20716;-65
2022/08/23 14:15:24;;;;;;;1.83;1.17;;;;;;;;;;5045209;28;20300;-65
2022/08/23 14:18:17;;;;;;;1.83;1.20;;;;;;;;;;5038143;28;20755;-66
2022/08/23 14:20:51;;;;;;;1.73;1.50;;;;;;;;;;5051742;28;20205;-68
2022/08/23 14:23:21;;;;;;;1.80;1.33;;;;;;;;;;5043877;28;20495;-67
2022/08/23 14:25:54;;;;;;;1.80;1.20;;;;;;;;;;5024099;28;20199;-67
2022/08/23 14:28:31;;;;;;;1.47;1.10;;;;;;;;;;5024809;28;20230;-67
2022/08/23 14:31:04;;;;;;;1.30;1.00;;;;;;;;;;5032958;28;20202;-66
2022/08/23 14:33:45;;;;;;;2.23;1.30;;;;;;;;;;5047266;28;20198;-67
2022/08/23 14:36:14;;;;;;;1.20;1.10;;;;;;;;;;5039178;28;20194;-70
2022/08/23 14:38:43;;;;;;;2.80;1.33;;;;;;;;;;5015241;28;20217;-70
2022/08/23 14:41:20;;;;;;;2.50;1.20;;;;;;;;;;5043005;28;20283;-68
2022/08/23 14:43:54;;;;;;;1.40;1.17;;;;;;;;;;5025811;28;20194;-67
2022/08/23 14:46:26;;;;;;;0.87;0.87;;;;;;;;;;5036932;28;20658;-67
2022/08/23 14:49:08;;;;;;;1.10;1.00;;;;;;;;;;5041744;28;20360;-67
2022/08/23 14:51:43;;;;;;;7.07;1.10;;;;;;;;;;5043739;28;20577;-70
2022/08/23 14:54:19;;;;;;;2.20;1.40;;;;;;;;;;5005686;28;20195;-68
2022/08/23 14:56:58;;;;;;;1.47;1.30;;;;;;;;;;5027781;28;20248;-67
2022/08/23 14:59:29;;;;;;;1.57;1.40;;;;;;;;;;5047494;28;20212;-65
2022/08/23 15:02:10;;;;;;;2.10;1.27;;;;;;;;;;5053502;28;20253;-66
2022/08/23 15:04:42;;;;;;;1.37;0.93;;;;;;;;;;5060061;28;20225;-65
2022/08/23 15:07:14;;;;;;;0.90;0.90;;;;;;;;;;5062203;28;20199;-65
2022/08/23 15:09:53;;;;;;;1.30;0.90;;;;;;;;;;5088689;28;20218;-65
2022/08/23 15:12:22;;;;;;;1.10;1.00;;;;;;;;;;5071772;28;20174;-65
2022/08/23 15:15:19;;;;;;;2.87;1.20;;;;;;;;;;5073165;28;20284;-65
2022/08/23 15:17:58;;;;;;;1.90;1.10;;;;;;;;;;5071931;28;20215;-65
2022/08/23 15:20:31;;;;;;;1.20;1.10;;;;;;;;;;5076934;28;20200;-64
2022/08/23 15:23:00;;;;;;;1.07;0.97;;;;;;;;;;5071545;28;20199;-64
2022/08/23 15:25:33;;;;;;;1.20;1.10;;;;;;;;;;5071963;28;20212;-65
2022/08/23 15:28:03;;;;;;;1.20;1.10;;;;;;;;;;5080202;28;20259;-65
2022/08/23 15:30:43;;;;;;;1.57;1.10;;;;;;;;;;5088459;28;20245;-63
2022/08/23 15:33:14;;;;;;;1.27;1.00;;;;;;;;;;5067766;28;20615;-64
2022/08/23 15:35:56;;;;;;;1.10;1.00;;;;;;;;;;5070516;28;20248;-65
2022/08/23 15:38:31;;;;;;;1.23;1.03;;;;;;;;;;5066678;28;20689;-65
2022/08/23 15:41:01;;;;;;;1.10;0.90;;;;;;;;;;5079662;28;20224;-65
2022/08/23 15:43:32;;;;;;;1.30;1.03;;;;;;;;;;5066094;28;20204;-69